Time;durP1;ratioP1;P1;durP2;ratioP2;P2;SDS_P1;SDS_P2;PMS_P1;PMS_P2;Temp;Humidity;BMP_temperature;BMP_pressure;BME280_temperature;BME280_humidity;BME280_pressure;Samples;Min_cycle;Max_cycle;Signal;HPM_P1;HPM_P2
2021/12/01 11:35:22;;;;;;;5.78;1.55;;;;;;;7.04;71.18;96383.66;5623537;23;20067;-47
2021/12/01 11:37:54;;;;;;;4.78;1.50;;;;;;;6.99;70.64;96381.44;4856545;29;20042;-45
2021/12/01 11:40:20;;;;;;;5.80;1.65;;;;;;;7.10;70.61;96372.72;4859027;29;20056;-46
2021/12/01 11:42:46;;;;;;;4.78;1.50;;;;;;;7.16;71.19;96372.22;4859021;29;20478;-48
2021/12/01 11:45:11;;;;;;;4.53;1.30;;;;;;;7.34;70.88;96367.22;4839392;29;20526;-49
2021/12/01 11:47:37;;;;;;;2.60;1.10;;;;;;;7.41;70.21;96365.75;4857745;29;20030;-49
2021/12/01 11:50:02;;;;;;;4.65;1.60;;;;;;;7.23;70.03;96357.69;4856933;29;20087;-46
2021/12/01 11:52:35;;;;;;;5.53;1.40;;;;;;;7.31;70.64;96350.03;4859908;29;20035;-51
2021/12/01 11:55:00;;;;;;;3.90;1.52;;;;;;;7.23;70.17;96349.88;4843958;29;20029;-49
2021/12/01 11:57:26;;;;;;;3.88;1.20;;;;;;;7.30;70.30;96348.41;4860241;29;20032;-49
2021/12/01 11:59:52;;;;;;;5.85;1.67;;;;;;;7.34;69.75;96355.00;4839907;29;20494;-53
2021/12/01 12:02:21;;;;;;;4.53;1.83;;;;;;;7.47;69.60;96352.19;4859668;29;20039;-49
2021/12/01 12:04:54;;;;;;;5.50;1.67;;;;;;;7.36;70.27;96342.69;4859912;29;20116;-52
2021/12/01 12:07:25;;;;;;;4.20;1.50;;;;;;;7.49;69.81;96339.00;4860216;29;20041;-50
2021/12/01 12:10:24;;;;;;;4.95;1.60;;;;;;;7.57;69.19;96333.94;4860184;29;20128;-53
2021/12/01 12:13:00;;;;;;;5.78;1.70;;;;;;;7.50;69.84;96327.59;4823752;29;20045;-50
2021/12/01 12:15:36;;;;;;;4.80;1.58;;;;;;;7.51;69.90;96327.50;4824008;29;20138;-53
2021/12/01 12:18:01;;;;;;;6.00;1.90;;;;;;;7.58;70.26;96312.94;4824218;29;20061;-55
2021/12/01 12:20:31;;;;;;;4.63;1.60;;;;;;;7.77;69.57;96301.72;4824283;29;20029;-53
2021/12/01 12:22:58;;;;;;;6.15;1.95;;;;;;;7.67;70.34;96303.50;4832038;29;20054;-53
2021/12/01 12:25:50;;;;;;;4.93;1.50;;;;;;;7.61;69.88;96288.38;4820004;29;20083;-52
2021/12/01 12:28:35;;;;;;;4.93;1.40;;;;;;;7.56;70.81;96285.34;4821169;29;20042;-54
2021/12/01 12:31:19;;;;;;;4.38;1.50;;;;;;;7.58;70.61;96283.44;4820980;29;20446;-52
2021/12/01 12:33:54;;;;;;;4.38;1.52;;;;;;;7.62;70.13;96269.16;4821506;29;20035;-53
2021/12/01 12:36:34;;;;;;;5.30;1.50;;;;;;;7.74;70.00;96259.41;4805415;29;20050;-54
2021/12/01 12:39:13;;;;;;;5.15;1.40;;;;;;;7.59;71.15;96249.38;4820982;29;20026;-53
2021/12/01 12:42:04;;;;;;;3.53;1.55;;;;;;;7.72;70.58;96249.13;4805983;29;20046;-51
2021/12/01 12:44:49;;;;;;;6.47;1.95;;;;;;;7.78;70.18;96240.75;4820499;29;20041;-49
2021/12/01 12:47:36;;;;;;;4.53;1.58;;;;;;;7.94;69.94;96236.78;4821078;29;20038;-53
2021/12/01 12:50:17;;;;;;;3.90;1.40;;;;;;;7.73;70.39;96229.06;4849863;29;20088;-52
2021/12/01 12:52:47;;;;;;;4.93;1.48;;;;;;;7.70;71.26;96230.16;4858326;29;20060;-57
2021/12/01 12:55:15;;;;;;;5.25;1.50;;;;;;;7.65;71.07;96232.38;4857822;29;20091;-54
2021/12/01 12:57:56;;;;;;;5.05;1.50;;;;;;;7.85;71.04;96228.00;4859671;29;20118;-55
2021/12/01 13:00:45;;;;;;;3.85;1.40;;;;;;;7.89;71.02;96215.50;4859211;29;20033;-54
2021/12/01 13:03:22;;;;;;;5.15;1.50;;;;;;;7.67;71.58;96220.00;4858989;29;20069;-50
2021/12/01 13:06:09;;;;;;;6.03;1.60;;;;;;;7.73;71.43;96219.44;4859376;29;20113;-56
2021/12/01 13:08:37;;;;;;;7.05;1.52;;;;;;;7.72;71.28;96209.97;4850011;29;20038;-56
2021/12/01 13:11:08;;;;;;;6.57;1.83;;;;;;;7.61;71.71;96205.72;4847567;29;20037;-56
2021/12/01 13:13:36;;;;;;;6.10;1.80;;;;;;;7.41;72.52;96206.66;4859264;29;20563;-51
2021/12/01 13:16:02;;;;;;;4.70;1.70;;;;;;;7.38;72.65;96199.09;4859406;29;20045;-51
2021/12/01 13:18:32;;;;;;;3.83;1.35;;;;;;;7.44;72.50;96203.78;4858290;29;20021;-52
2021/12/01 13:20:59;;;;;;;5.72;1.77;;;;;;;7.49;72.63;96190.31;4859128;29;20064;-54
2021/12/01 13:23:34;;;;;;;6.57;1.90;;;;;;;7.38;73.46;96199.09;4855696;29;20034;-53
2021/12/01 13:26:10;;;;;;;6.45;1.80;;;;;;;7.16;74.36;96194.94;4859286;29;20049;-53
2021/12/01 13:28:36;;;;;;;5.95;2.00;;;;;;;7.19;73.43;96189.44;4859226;29;20025;-55
2021/12/01 13:31:04;;;;;;;8.82;1.90;;;;;;;7.12;73.75;96188.31;4859373;29;20037;-52
2021/12/01 13:33:30;;;;;;;4.95;1.80;;;;;;;7.11;73.52;96161.41;4872719;29;20117;-53
2021/12/01 13:35:55;;;;;;;5.50;1.80;;;;;;;7.13;73.69;96179.53;4858334;29;20034;-54
2021/12/01 13:38:31;;;;;;;6.28;1.98;;;;;;;7.19;72.96;96184.22;4862691;29;20026;-53
2021/12/01 13:41:05;;;;;;;3.70;1.45;;;;;;;7.11;73.19;96161.41;4849977;29;20042;-50
2021/12/01 13:43:30;;;;;;;6.30;2.13;;;;;;;7.01;74.48;96170.16;4853492;29;20089;-54
2021/12/01 13:46:00;;;;;;;6.30;2.28;;;;;;;7.10;73.94;96158.94;4862551;29;20025;-54
2021/12/01 13:48:26;;;;;;;5.80;1.80;;;;;;;7.22;73.75;96142.22;4861319;29;20060;-53
2021/12/01 13:50:52;;;;;;;5.35;1.73;;;;;;;7.20;73.47;96145.94;4862174;29;20108;-54
2021/12/01 13:53:17;;;;;;;5.22;1.75;;;;;;;7.27;73.83;96147.88;4861099;29;20063;-54
2021/12/01 13:55:42;;;;;;;6.45;2.03;;;;;;;7.21;73.53;96135.38;4861363;29;20055;-55
2021/12/01 13:58:09;;;;;;;6.35;2.10;;;;;;;7.24;73.61;96144.72;4862439;29;20494;-56
2021/12/01 14:00:37;;;;;;;7.93;2.30;;;;;;;7.25;73.95;96136.75;4862263;29;20501;-52
2021/12/01 14:03:03;;;;;;;6.50;1.95;;;;;;;7.29;73.67;96132.91;4862115;29;20041;-55
2021/12/01 14:05:29;;;;;;;7.45;2.20;;;;;;;7.19;74.60;96132.09;4861973;29;20508;-46
2021/12/01 14:08:02;;;;;;;5.60;1.95;;;;;;;7.45;74.10;96126.34;4862057;29;20038;-47
2021/12/01 14:10:36;;;;;;;7.53;2.55;;;;;;;7.25;73.77;96118.50;4862206;29;20038;-52
2021/12/01 14:13:05;;;;;;;30.05;6.82;;;;;;;7.34;74.72;96115.06;4861756;29;20117;-53
2021/12/01 14:15:37;;;;;;;7.57;3.05;;;;;;;7.24;73.92;96116.03;4860685;29;20029;-51
2021/12/01 14:18:03;;;;;;;18.20;5.28;;;;;;;7.45;74.13;96116.72;4861826;29;20125;-51
2021/12/01 14:20:28;;;;;;;6.70;2.47;;;;;;;7.22;73.87;96110.94;4861960;29;20025;-54
2021/12/01 14:22:54;;;;;;;7.97;2.75;;;;;;;7.21;74.77;96109.28;4861611;29;20040;-52
2021/12/01 14:25:23;;;;;;;9.95;2.92;;;;;;;7.24;74.39;96101.22;4861701;29;20033;-54
2021/12/01 14:28:01;;;;;;;6.43;2.10;;;;;;;7.10;75.33;96106.81;4861701;29;20038;-54
2021/12/01 14:30:27;;;;;;;7.40;2.72;;;;;;;7.12;74.60;96097.91;4861737;29;20025;-54
2021/12/01 14:32:52;;;;;;;9.73;3.53;;;;;;;7.13;75.41;96090.91;4861333;29;20046;-54
2021/12/01 14:35:20;;;;;;;7.10;2.70;;;;;;;7.13;75.10;96091.72;4861286;29;20052;-53
2021/12/01 14:37:45;;;;;;;10.05;3.30;;;;;;;7.13;74.75;96085.69;4861616;29;20036;-57
2021/12/01 14:40:12;;;;;;;10.63;3.95;;;;;;;7.03;74.93;96084.84;4861647;29;20029;-49
2021/12/01 14:42:42;;;;;;;10.20;3.67;;;;;;;7.22;74.18;96094.47;4861117;29;20447;-52
2021/12/01 14:45:08;;;;;;;7.57;2.80;;;;;;;7.04;74.49;96083.88;4861124;29;20022;-56
2021/12/01 14:47:33;;;;;;;6.18;2.40;;;;;;;7.09;74.28;96086.94;4860815;29;20078;-54
2021/12/01 14:49:59;;;;;;;10.07;3.53;;;;;;;6.88;75.81;96077.44;4861413;29;20375;-53
2021/12/01 14:52:29;;;;;;;8.30;3.10;;;;;;;6.98;75.36;96072.22;4860210;29;20080;-53
2021/12/01 14:55:01;;;;;;;10.38;3.10;;;;;;;6.96;74.75;96063.72;4875068;29;20110;-52
2021/12/01 14:57:28;;;;;;;7.53;3.10;;;;;;;6.95;74.91;96061.22;4861311;29;20040;-53
2021/12/01 14:59:55;;;;;;;7.13;2.92;;;;;;;6.85;75.53;96069.88;4861374;29;20117;-53
2021/12/01 15:02:29;;;;;;;10.32;4.22;;;;;;;6.81;75.55;96078.06;4860899;29;20026;-48
2021/12/01 15:05:13;;;;;;;13.73;5.20;;;;;;;6.73;75.96;96075.31;4860584;29;20033;-56
2021/12/01 15:07:48;;;;;;;10.27;3.78;;;;;;;6.61;76.94;96079.81;4861088;29;20030;-54
2021/12/01 15:10:18;;;;;;;10.40;3.72;;;;;;;6.65;75.80;96076.00;4861009;29;20367;-55
2021/12/01 15:12:48;;;;;;;16.42;5.28;;;;;;;6.70;75.96;96080.78;4860071;29;20089;-51
2021/12/01 15:15:30;;;;;;;19.73;6.68;;;;;;;6.59;76.33;96076.50;4860583;29;20037;-52
2021/12/01 15:18:02;;;;;;;23.58;7.63;;;;;;;6.68;76.34;96074.91;4860930;29;20053;-53
2021/12/01 15:20:28;;;;;;;20.23;5.93;;;;;;;6.62;76.59;96071.88;4860809;29;20021;-52
2021/12/01 15:23:01;;;;;;;12.50;4.80;;;;;;;6.60;77.24;96072.94;4860799;29;20036;-52
2021/12/01 15:25:26;;;;;;;28.15;6.72;;;;;;;6.61;77.29;96069.41;4860226;29;20025;-54
2021/12/01 15:27:52;;;;;;;43.17;9.13;;;;;;;6.71;76.79;96074.63;4841153;29;20086;-55
2021/12/01 15:30:17;;;;;;;25.15;8.07;;;;;;;6.70;77.17;96071.19;4842350;29;20030;-55
2021/12/01 15:32:43;;;;;;;9.32;3.78;;;;;;;6.75;77.88;96068.22;4842261;29;20038;-53
2021/12/01 15:35:08;;;;;;;8.23;3.22;;;;;;;6.65;78.28;96071.59;4841762;29;20041;-54
2021/12/01 15:37:33;;;;;;;6.63;2.53;;;;;;;6.70;78.46;96065.16;4857968;29;20033;-51
2021/12/01 15:39:59;;;;;;;7.38;2.47;;;;;;;6.71;78.32;96067.66;4860632;29;20025;-52
2021/12/01 15:42:24;;;;;;;6.82;2.63;;;;;;;6.60;79.07;96073.75;4860473;29;20034;-53
2021/12/01 15:44:50;;;;;;;7.20;2.97;;;;;;;6.57;78.96;96058.44;4860227;29;20040;-52
2021/12/01 15:47:21;;;;;;;8.40;2.80;;;;;;;6.64;78.82;96054.34;4860135;29;20037;-50
2021/12/01 15:49:46;;;;;;;22.75;6.70;;;;;;;6.64;78.86;96051.72;4860286;29;20030;-54
2021/12/01 15:52:12;;;;;;;15.95;4.25;;;;;;;6.73;78.54;96054.47;4860353;29;20044;-52
2021/12/01 15:54:37;;;;;;;12.45;3.53;;;;;;;6.75;79.07;96049.97;4859930;29;20409;-54
2021/12/01 15:57:03;;;;;;;9.77;3.33;;;;;;;6.81;79.47;96046.81;4860299;29;20095;-54
2021/12/01 15:59:28;;;;;;;9.18;3.30;;;;;;;6.79;79.61;96033.94;4859501;29;20059;-55
2021/12/01 16:01:54;;;;;;;11.95;3.05;;;;;;;6.98;78.32;96042.72;4859897;29;20029;-54
2021/12/01 16:04:20;;;;;;;13.70;3.70;;;;;;;7.08;78.43;96046.16;4859943;29;20028;-52
2021/12/01 16:06:46;;;;;;;4.63;1.38;;;;;;;7.15;77.15;96031.63;4859680;29;20029;-54
2021/12/01 16:09:12;;;;;;;5.60;2.00;;;;;;;7.12;77.62;96042.31;4860021;29;20033;-56
2021/12/01 16:11:38;;;;;;;13.73;3.83;;;;;;;7.08;78.87;96043.56;4860123;29;20029;-54
2021/12/01 16:14:03;;;;;;;12.93;3.95;;;;;;;7.05;78.11;96036.81;4859911;29;20409;-56
2021/12/01 16:16:28;;;;;;;7.65;2.28;;;;;;;7.05;78.70;96021.19;4859415;29;20085;-55
2021/12/01 16:18:54;;;;;;;13.07;4.03;;;;;;;7.02;77.98;96016.25;4859906;29;20029;-55
2021/12/01 16:21:19;;;;;;;9.55;2.50;;;;;;;7.01;78.41;96030.22;4860052;29;20030;-55
2021/12/01 16:23:46;;;;;;;10.13;2.70;;;;;;;6.95;79.09;96020.38;4859550;29;20069;-54
2021/12/01 16:26:11;;;;;;;11.52;2.90;;;;;;;6.98;78.07;96027.91;4858648;29;20552;-55
2021/12/01 16:28:37;;;;;;;13.32;3.20;;;;;;;6.94;78.52;96029.13;4859579;29;20021;-55
2021/12/01 16:31:02;;;;;;;9.75;2.42;;;;;;;7.02;79.10;96031.06;4859878;29;20032;-54
2021/12/01 16:33:28;;;;;;;16.40;5.20;;;;;;;6.88;79.52;96025.31;4859628;29;20029;-51
2021/12/01 16:35:54;;;;;;;11.18;3.38;;;;;;;6.85;79.80;96035.19;4859615;29;20116;-49
2021/12/01 16:38:19;;;;;;;10.68;3.88;;;;;;;6.76;81.00;96044.63;4859404;29;20108;-50
2021/12/01 16:40:45;;;;;;;7.88;2.25;;;;;;;6.84;80.77;96042.16;4859860;29;20478;-52
2021/12/01 16:43:13;;;;;;;12.10;3.22;;;;;;;6.74;80.92;96043.91;4859636;29;20030;-50
2021/12/01 16:45:38;;;;;;;12.85;3.80;;;;;;;6.83;80.58;96043.13;4859528;29;20498;-55
2021/12/01 16:48:04;;;;;;;15.27;4.43;;;;;;;6.82;80.37;96057.09;4859359;29;20029;-49
2021/12/01 16:50:30;;;;;;;14.23;3.63;;;;;;;6.77;80.39;96048.84;4858456;29;20395;-53
2021/12/01 16:52:55;;;;;;;18.15;4.75;;;;;;;6.84;80.19;96049.16;4858300;29;20104;-52
2021/12/01 16:55:21;;;;;;;11.95;2.80;;;;;;;6.86;79.51;96042.84;4859329;29;20036;-53
2021/12/01 16:57:47;;;;;;;10.95;3.00;;;;;;;6.93;78.91;96042.31;4859473;29;20489;-52
2021/12/01 17:00:14;;;;;;;11.05;3.63;;;;;;;6.93;79.49;96044.91;4859186;29;20033;-54
2021/12/01 17:02:43;;;;;;;12.05;3.92;;;;;;;6.90;79.00;96046.81;4858186;29;20080;-54
2021/12/01 17:05:09;;;;;;;9.75;3.10;;;;;;;6.87;79.80;96049.69;4859195;29;20036;-51
2021/12/01 17:10:23;;;;;;;3.97;1.40;;;;;;;6.82;79.72;96030.22;4866341;29;20078;-53
2021/12/01 17:12:49;;;;;;;3.97;1.40;;;;;;;6.82;79.47;96031.06;4863194;29;20033;-50
2021/12/01 17:15:15;;;;;;;4.70;1.52;;;;;;;6.86;79.60;96036.81;4862865;29;20136;-54
2021/12/01 17:17:41;;;;;;;4.85;1.35;;;;;;;6.77;79.14;96033.22;4863101;29;20029;-54
2021/12/01 17:20:08;;;;;;;4.85;1.40;;;;;;;6.78;79.73;96034.91;4862721;29;20482;-52
2021/12/01 17:22:38;;;;;;;5.65;1.90;;;;;;;6.81;79.07;96039.00;4877345;29;20029;-54
2021/12/01 17:25:07;;;;;;;3.80;1.40;;;;;;;6.89;78.68;96042.59;4862811;29;20026;-53
2021/12/01 17:27:33;;;;;;;4.97;1.50;;;;;;;7.00;77.15;96048.63;4863221;29;20037;-53
2021/12/01 17:30:00;;;;;;;4.10;1.25;;;;;;;7.04;76.70;96050.81;4862857;29;20069;-50
2021/12/01 17:32:25;;;;;;;5.18;1.30;;;;;;;7.04;77.12;96050.00;4862480;29;20064;-51
2021/12/01 17:34:51;;;;;;;3.67;1.20;;;;;;;7.05;76.64;96041.22;4862226;29;20034;-52
2021/12/01 17:37:16;;;;;;;4.70;1.30;;;;;;;7.10;75.41;96046.84;4862615;29;20025;-53
2021/12/01 17:39:42;;;;;;;2.78;1.10;;;;;;;7.12;75.25;96047.53;4862316;29;20030;-53
2021/12/01 17:42:09;;;;;;;6.82;1.52;;;;;;;7.11;75.68;96045.88;4876808;29;20112;-50
2021/12/01 17:44:34;;;;;;;5.15;1.48;;;;;;;7.17;75.03;96050.56;4861239;29;20036;-52
2021/12/01 17:47:00;;;;;;;3.80;1.20;;;;;;;7.10;75.45;96039.03;4862520;29;20029;-50
2021/12/01 17:49:28;;;;;;;3.15;1.33;;;;;;;7.13;75.57;96038.75;4862574;29;20029;-52
2021/12/01 17:51:54;;;;;;;2.72;0.93;;;;;;;7.13;74.99;96055.22;4862493;29;20069;-52
2021/12/01 17:54:19;;;;;;;46.42;10.85;;;;;;;7.19;74.54;96053.88;4861949;29;20085;-53
2021/12/01 17:56:45;;;;;;;46.85;11.23;;;;;;;7.21;74.44;96040.69;4862389;29;20026;-54
2021/12/01 17:59:10;;;;;;;75.90;19.73;;;;;;;7.21;75.11;96051.94;4862406;29;20021;-54
2021/12/01 18:01:36;;;;;;;31.30;9.77;;;;;;;7.22;75.25;96065.78;4845470;29;20068;-54
2021/12/01 18:04:01;;;;;;;10.32;3.97;;;;;;;7.20;75.48;96065.13;4862059;29;20029;-51
2021/12/01 18:06:26;;;;;;;12.50;3.85;;;;;;;7.23;74.47;96077.88;4876541;29;20036;-51
2021/12/01 18:08:52;;;;;;;12.23;4.35;;;;;;;7.12;74.82;96073.59;4860785;29;20036;-53
2021/12/01 18:11:17;;;;;;;11.40;4.07;;;;;;;7.18;75.57;96073.06;4861965;29;20033;-54
2021/12/01 18:13:43;;;;;;;9.27;3.50;;;;;;;7.18;74.67;96078.28;4861372;29;20037;-53
2021/12/01 18:16:08;;;;;;;7.65;3.20;;;;;;;7.14;75.30;96071.69;4862025;29;20081;-54
2021/12/01 18:18:34;;;;;;;7.97;3.55;;;;;;;7.10;75.51;96085.97;4862068;29;20036;-54
2021/12/01 18:20:59;;;;;;;6.15;2.05;;;;;;;7.13;74.49;96090.91;4862157;29;20470;-53
2021/12/01 18:23:24;;;;;;;7.05;2.20;;;;;;;7.12;74.65;96076.19;4860319;29;20040;-53
2021/12/01 18:25:51;;;;;;;5.45;2.08;;;;;;;7.10;74.95;96101.59;4861890;29;20073;-51
2021/12/01 18:28:17;;;;;;;4.07;1.50;;;;;;;7.08;75.57;96109.53;4861591;29;20022;-51
2021/12/01 18:30:42;;;;;;;4.88;1.70;;;;;;;7.05;75.09;96109.00;4861882;29;20045;-54
2021/12/01 18:33:08;;;;;;;4.60;1.65;;;;;;;7.10;75.43;96107.63;4861061;29;20043;-54
2021/12/01 18:35:34;;;;;;;5.30;1.45;;;;;;;7.04;75.75;96112.56;4859395;29;20045;-53
2021/12/01 18:37:59;;;;;;;3.40;1.20;;;;;;;7.09;74.60;96123.44;4861628;29;20038;-51
2021/12/01 18:40:24;;;;;;;2.20;1.20;;;;;;;7.16;74.72;96136.72;4861426;29;20022;-52
2021/12/01 18:42:50;;;;;;;2.78;1.05;;;;;;;7.06;75.10;96113.25;4861535;29;20053;-49
2021/12/01 18:45:15;;;;;;;6.30;1.70;;;;;;;6.98;75.69;96123.50;4861215;29;20029;-49
2021/12/01 18:47:41;;;;;;;4.25;1.10;;;;;;;6.98;74.98;96129.53;4861448;29;20030;-49
2021/12/01 18:50:07;;;;;;;3.55;1.10;;;;;;;6.99;74.91;96127.78;4860924;29;20028;-49
2021/12/01 18:52:33;;;;;;;3.30;1.10;;;;;;;6.96;75.46;96113.22;4861332;29;20029;-53
2021/12/01 18:54:58;;;;;;;3.22;1.27;;;;;;;7.02;74.85;96130.09;4861029;29;20401;-50
2021/12/01 18:57:26;;;;;;;3.42;1.25;;;;;;;7.03;75.38;96142.19;4861185;29;20093;-51
2021/12/01 18:59:51;;;;;;;3.42;1.40;;;;;;;7.00;76.36;96139.84;4860659;29;20028;-53
2021/12/01 19:02:17;;;;;;;3.80;1.30;;;;;;;7.03;75.89;96142.19;4859931;29;20029;-54
2021/12/01 19:04:43;;;;;;;4.55;1.60;;;;;;;7.00;75.17;96139.84;4874943;29;20036;-54
2021/12/01 19:07:08;;;;;;;3.85;1.40;;;;;;;6.89;76.52;96146.81;4861190;29;20026;-53
2021/12/01 19:09:36;;;;;;;2.72;1.13;;;;;;;6.80;77.02;96147.59;4861225;29;20033;-51
2021/12/01 19:12:02;;;;;;;2.47;1.05;;;;;;;6.85;76.94;96144.63;4858247;29;20493;-53
2021/12/01 19:14:27;;;;;;;3.63;1.33;;;;;;;6.70;77.20;96141.53;4860102;29;20113;-54
2021/12/01 19:16:53;;;;;;;5.72;2.10;;;;;;;6.78;76.87;96154.75;4875252;29;20236;-52
2021/12/01 19:19:18;;;;;;;8.82;2.00;;;;;;;6.67;77.09;96170.44;4860471;29;20025;-51
2021/12/01 19:21:44;;;;;;;12.52;5.00;;;;;;;6.82;76.41;96186.56;4861049;29;20036;-54
2021/12/01 19:24:09;;;;;;;12.50;7.70;;;;;;;6.84;77.20;96203.72;4860467;29;20460;-51
2021/12/01 19:26:35;;;;;;;12.52;5.63;;;;;;;6.68;78.62;96182.53;4858973;29;20496;-51
2021/12/01 19:29:01;;;;;;;15.55;5.07;;;;;;;6.44;80.90;96175.03;4857946;29;20017;-52
2021/12/01 19:31:26;;;;;;;18.75;5.95;;;;;;;6.21;82.55;96174.31;4851192;29;20041;-50
2021/12/01 19:33:52;;;;;;;9.70;3.03;;;;;;;6.15;83.25;96177.44;4860134;29;20036;-52
2021/12/01 19:36:17;;;;;;;7.22;2.40;;;;;;;6.08;83.37;96181.50;4860365;29;20033;-52
2021/12/01 19:38:44;;;;;;;7.20;3.03;;;;;;;6.29;82.13;96177.09;4860713;29;20105;-51
2021/12/01 19:41:10;;;;;;;13.93;4.20;;;;;;;6.09;83.21;96186.59;4889632;29;20080;-54
2021/12/01 19:43:36;;;;;;;25.15;10.35;;;;;;;6.09;83.94;96188.34;4859984;29;20455;-52
2021/12/01 19:46:02;;;;;;;18.85;8.30;;;;;;;5.92;85.23;96198.38;4857338;29;20038;-53
2021/12/01 19:48:27;;;;;;;6.75;2.75;;;;;;;6.18;83.50;96200.59;4857789;29;20553;-50
2021/12/01 19:50:53;;;;;;;10.52;5.03;;;;;;;5.97;84.05;96207.59;4859113;29;20489;-54
2021/12/01 19:53:18;;;;;;;12.27;7.07;;;;;;;5.98;85.06;96209.22;4860184;29;20044;-52
2021/12/01 19:55:44;;;;;;;7.20;3.35;;;;;;;6.19;83.96;96220.47;4846384;29;20038;-52
2021/12/01 19:58:09;;;;;;;10.90;5.80;;;;;;;5.96;85.21;96213.75;4841773;29;20087;-51
2021/12/01 20:00:34;;;;;;;7.43;2.80;;;;;;;6.02;85.01;96234.03;4841694;29;20038;-52
2021/12/01 20:03:00;;;;;;;6.60;3.35;;;;;;;6.04;84.35;96238.19;4855656;29;20097;-49
2021/12/01 20:05:26;;;;;;;6.43;2.67;;;;;;;6.10;84.39;96240.28;4862049;29;20060;-53
2021/12/01 20:07:52;;;;;;;12.32;4.78;;;;;;;6.07;84.78;96244.91;4859904;29;20026;-55
2021/12/01 20:10:19;;;;;;;11.35;4.55;;;;;;;6.10;85.22;96247.28;4870838;29;20375;-54
2021/12/01 20:12:46;;;;;;;8.80;2.67;;;;;;;6.13;84.72;96247.03;4860110;29;20033;-53
2021/12/01 20:15:13;;;;;;;11.38;4.53;;;;;;;5.92;86.08;96236.56;4859607;29;20029;-51
2021/12/01 20:17:39;;;;;;;29.58;15.77;;;;;;;5.89;86.75;96245.44;4847646;29;20395;-51
2021/12/01 20:20:05;;;;;;;17.58;8.80;;;;;;;5.99;85.74;96240.34;4844432;29;20088;-52
2021/12/01 20:22:33;;;;;;;9.55;4.90;;;;;;;6.00;85.71;96231.59;4855230;29;20033;-51
2021/12/01 20:25:04;;;;;;;10.10;4.68;;;;;;;5.97;85.29;96236.22;4861282;29;20041;-51
2021/12/01 20:27:29;;;;;;;9.80;3.20;;;;;;;5.89;85.42;96232.44;4860543;29;20627;-53
2021/12/01 20:29:55;;;;;;;13.90;6.55;;;;;;;5.87;84.46;96226.50;4859366;29;20037;-53
2021/12/01 20:32:20;;;;;;;7.15;3.25;;;;;;;6.00;82.88;96226.38;4858920;29;20025;-50
2021/12/01 20:34:45;;;;;;;12.38;4.93;;;;;;;5.86;82.77;96224.88;4853569;29;20386;-52
2021/12/01 20:37:13;;;;;;;14.88;6.10;;;;;;;5.80;82.97;96230.56;4859601;29;20028;-50
2021/12/01 20:39:39;;;;;;;14.07;6.57;;;;;;;5.73;81.93;96229.41;4843846;29;20033;-52
2021/12/01 20:42:05;;;;;;;12.70;4.03;;;;;;;5.81;81.37;96227.00;4843134;29;20443;-53
2021/12/01 20:44:33;;;;;;;12.38;4.75;;;;;;;5.83;81.66;96230.31;4858016;29;20029;-53
2021/12/01 20:47:50;;;;;;;15.93;7.38;;;;;;;5.82;82.04;96223.47;4858591;29;20040;-54
2021/12/01 20:55:54;;;;;;;6.88;2.67;;;;;;;5.76;81.20;96229.16;4857672;29;20032;-51
2021/12/01 20:58:28;;;;;;;6.43;2.92;;;;;;;5.71;81.45;96228.69;4858579;29;20081;-50
2021/12/01 21:03:39;;;;;;;8.10;3.90;;;;;;;5.53;81.94;96232.75;4858233;29;20421;-50
2021/12/01 21:06:04;;;;;;;9.60;4.78;;;;;;;5.47;82.30;96240.13;4859113;29;20089;-53
2021/12/01 21:08:32;;;;;;;9.80;4.90;;;;;;;5.48;82.80;96231.38;4858792;29;20034;-54
2021/12/01 21:11:00;;;;;;;9.55;4.00;;;;;;;5.57;81.91;96234.16;4854389;29;20057;-53
2021/12/01 21:13:29;;;;;;;7.53;3.42;;;;;;;5.55;81.75;96236.09;4851196;29;20122;-54
2021/12/01 21:15:54;;;;;;;12.18;4.38;;;;;;;5.48;82.13;96240.94;4851389;29;20056;-54
2021/12/01 21:18:20;;;;;;;7.35;3.40;;;;;;;5.61;80.26;96228.63;4858662;29;20424;-51
2021/12/01 21:20:46;;;;;;;10.90;4.90;;;;;;;5.41;81.79;96232.81;4859227;29;20162;-54
2021/12/01 21:23:12;;;;;;;10.75;3.95;;;;;;;5.58;80.66;96225.44;4858589;29;20032;-53
2021/12/01 21:25:50;;;;;;;9.80;3.85;;;;;;;5.51;80.76;96227.69;4873279;29;20419;-51
2021/12/01 21:28:15;;;;;;;8.40;2.95;;;;;;;5.41;80.86;96227.59;4859158;29;20021;-58
2021/12/01 21:30:41;;;;;;;9.35;4.13;;;;;;;5.54;79.75;96231.81;4876232;29;20033;-56
2021/12/01 21:33:07;;;;;;;11.75;5.35;;;;;;;5.41;80.60;96230.19;4863960;29;20029;-51
2021/12/01 21:35:39;;;;;;;10.35;4.90;;;;;;;5.33;80.68;96227.34;4858583;29;20037;-53
2021/12/01 21:38:06;;;;;;;8.27;4.22;;;;;;;5.42;80.33;96229.25;4858792;29;20036;-54
2021/12/01 21:40:31;;;;;;;7.45;2.92;;;;;;;5.46;79.95;96238.44;4859035;29;20041;-51
2021/12/01 21:42:57;;;;;;;8.80;3.50;;;;;;;5.39;80.55;96231.25;4873327;29;20022;-52
2021/12/01 21:45:22;;;;;;;8.77;2.95;;;;;;;5.47;80.86;96249.66;4866451;29;20025;-54
2021/12/01 21:47:47;;;;;;;9.55;3.60;;;;;;;5.43;80.79;96243.88;4858904;29;20097;-51
2021/12/01 21:50:13;;;;;;;6.22;2.50;;;;;;;5.48;79.85;96238.34;4869691;29;20032;-50
2021/12/01 21:52:38;;;;;;;7.13;2.70;;;;;;;5.46;80.22;96248.03;4864936;29;20048;-52
2021/12/01 21:55:04;;;;;;;9.65;3.35;;;;;;;5.42;80.12;96241.41;4843294;29;20088;-54
2021/12/01 21:57:29;;;;;;;5.68;2.55;;;;;;;5.62;78.91;96250.25;4863315;29;20063;-50
2021/12/01 21:59:55;;;;;;;9.63;3.67;;;;;;;5.65;79.20;96255.22;4861451;29;20030;-51
2021/12/01 22:02:25;;;;;;;6.85;2.35;;;;;;;5.42;80.43;96252.66;4860360;29;20032;-52
2021/12/01 22:04:52;;;;;;;5.78;2.25;;;;;;;5.55;79.79;96256.88;4861937;29;20032;-52
2021/12/01 22:07:17;;;;;;;3.33;1.40;;;;;;;5.55;80.00;96252.50;4862112;29;20073;-53
2021/12/01 22:09:45;;;;;;;6.00;2.40;;;;;;;5.36;80.01;96249.69;4865028;29;20443;-49
2021/12/01 22:12:12;;;;;;;4.32;1.60;;;;;;;5.41;80.21;96256.19;4863262;29;20493;-50
